Time;durP1;ratioP1;P1;durP2;ratioP2;P2;SDS_P1;SDS_P2;PMS_P1;PMS_P2;Temp;Humidity;BMP_temperature;BMP_pressure;BME280_temperature;BME280_humidity;BME280_pressure;Samples;Min_cycle;Max_cycle;Signal;HPM_P1;HPM_P2
2022/06/30 00:02:00;;;;;;;33.15;6.20;;;;;;;15.62;57.96;99962.22;6130394;23;20033;-96
2022/06/30 00:15:11;;;;;;;13.25;5.70;;;;;;;15.59;57.25;99949.91;6191418;23;20017;-94
2022/06/30 00:17:57;;;;;;;19.00;5.80;;;;;;;15.54;57.95;99952.88;6109738;23;20022;-92
2022/06/30 00:20:55;;;;;;;24.87;5.97;;;;;;;15.49;58.38;99944.78;6101866;23;20029;-94
2022/06/30 00:34:02;;;;;;;27.60;6.28;;;;;;;15.55;54.57;99950.91;6212936;23;20027;-94
2022/06/30 00:37:02;;;;;;;30.35;6.85;;;;;;;15.59;57.49;99949.13;6126154;23;20882;-96
2022/06/30 00:46:18;;;;;;;13.98;6.80;;;;;;;15.54;58.97;99955.63;6172384;23;20037;-95
2022/06/30 00:52:37;;;;;;;14.02;6.40;;;;;;;15.20;59.08;99901.47;6161631;23;20063;-95
2022/06/30 00:55:18;;;;;;;15.23;6.70;;;;;;;15.39;58.08;99936.88;6131763;23;20110;-94
2022/06/30 01:01:41;;;;;;;20.48;6.88;;;;;;;15.17;58.25;99902.13;6211168;22;20021;31
2022/06/30 01:04:19;;;;;;;27.85;6.63;;;;;;;15.41;57.51;99931.84;6186489;23;20092;-95
2022/06/30 01:13:48;;;;;;;16.50;5.90;;;;;;;15.35;56.54;99928.47;6214834;23;20032;-93
2022/06/30 01:29:36;;;;;;;12.85;5.55;;;;;;;14.95;59.28;99889.41;6102565;22;2189809;-92
2022/06/30 01:49:57;;;;;;;;;;;;;;;;;;;;;
2022/06/30 01:53:49;;;;;;;13.57;6.10;;;;;;;15.37;58.89;99903.34;6246738;22;20284;-93
2022/06/30 02:00:16;;;;;;;17.48;6.82;;;;;;;15.23;60.51;99879.59;6242808;22;20110;31
2022/06/30 02:03:06;;;;;;;;;;;;;;;;;;;;;
2022/06/30 02:20:29;;;;;;;25.90;6.72;;;;;;;15.85;59.20;99896.63;6168083;23;20725;-94
2022/06/30 02:50:23;;;;;;;19.88;6.75;;;;;;;16.79;58.97;99882.44;6207082;23;20032;-96
2022/06/30 02:52:49;;;;;;;17.80;6.70;;;;;;;16.77;58.96;99865.41;6201812;23;20380;-96
2022/06/30 02:55:25;;;;;;;24.77;7.07;;;;;;;17.04;59.06;99889.63;6198474;22;20019;-94
2022/06/30 03:02:30;;;;;;;29.38;7.15;;;;;;;17.30;58.42;99892.09;6276357;22;20437;-94
2022/06/30 03:09:34;;;;;;;25.52;7.47;;;;;;;17.53;58.25;99892.44;6256914;22;20028;-94
2022/06/30 03:15:39;;;;;;;33.10;7.07;;;;;;;17.73;55.83;99889.91;6264156;22;20079;-91
2022/06/30 03:21:41;;;;;;;26.77;8.25;;;;;;;17.92;55.75;99886.59;6273150;22;20043;-96
2022/06/30 03:24:43;;;;;;;29.58;8.82;;;;;;;17.53;51.50;99817.81;6211599;23;20036;-91
2022/06/30 03:27:45;;;;;;;28.33;8.50;;;;;;;18.14;51.34;99888.00;6194283;22;20387;-96
2022/06/30 03:30:47;;;;;;;25.77;8.07;;;;;;;18.25;50.40;99892.72;6161734;23;20064;-96
2022/06/30 03:37:52;;;;;;;23.70;7.72;;;;;;;18.50;48.61;99876.03;6193803;22;20088;-96
2022/06/30 03:43:54;;;;;;;30.42;8.95;;;;;;;18.67;49.82;99881.25;6216157;22;20029;-94
2022/06/30 03:46:56;;;;;;;23.08;8.63;;;;;;;18.76;48.51;99879.16;6191346;22;20012;-96
2022/06/30 04:10:01;;;;;;;43.42;8.55;;;;;;;19.21;46.26;99839.16;6174510;23;20025;-95
2022/06/30 04:28:46;;;;;;;26.98;8.40;;;;;;;19.71;44.24;99845.13;6216495;22;20840;-96
2022/06/30 04:41:28;;;;;;;16.80;5.13;;;;;;;20.27;41.71;99874.50;6141550;23;20037;-92
2022/06/30 04:50:12;;;;;;;13.90;3.70;;;;;;;20.28;40.60;99868.56;6187966;23;20032;31
2022/06/30 06:13:25;;;;;;;20.55;4.50;;;;;;;21.30;34.76;99772.78;6232686;22;20009;-89
2022/06/30 06:22:02;;;;;;;;;;;;;;;21.81;31.63;99842.72;6218293;22;20466;-92
2022/06/30 06:24:29;;;;;;;21.88;2.50;;;;;;;21.64;31.54;99825.75;6145204;23;19916;-91
2022/06/30 06:30:47;;;;;;;21.13;3.10;;;;;;;21.25;30.28;99757.19;6050493;23;20022;-90
2022/06/30 06:36:25;;;;;;;27.02;3.13;;;;;;;21.33;29.62;99767.28;6074835;23;20022;-92
2022/06/30 07:16:48;;;;;;;10.98;2.35;;;;;;;21.93;25.28;99801.91;6171625;23;20055;-90
2022/06/30 07:44:14;;;;;;;54.40;5.50;;;;;;;22.35;26.77;99796.09;6136936;22;20024;-89
2022/06/30 07:46:40;;;;;;;16.02;2.70;;;;;;;22.25;28.81;99774.47;6104762;23;20022;-89
2022/06/30 07:49:06;;;;;;;29.15;3.97;;;;;;;22.09;27.88;99771.91;6078717;23;20022;-92
2022/06/30 07:51:33;;;;;;;33.20;3.77;;;;;;;22.36;30.47;99791.34;6123970;23;20024;-88
2022/06/30 07:53:59;;;;;;;18.45;3.13;;;;;;;22.46;29.42;99810.94;6098941;23;20313;-87
2022/06/30 07:56:25;;;;;;;45.60;4.93;;;;;;;22.40;31.93;99773.47;6157416;23;20016;-91
2022/06/30 07:58:54;;;;;;;47.10;4.57;;;;;;;22.41;28.44;99754.75;6192887;23;20432;-88
2022/06/30 08:01:21;;;;;;;26.17;3.67;;;;;;;22.55;27.26;99791.16;6246786;23;20022;-92
2022/06/30 08:03:48;;;;;;;22.13;3.50;;;;;;;22.56;29.99;99786.38;6194991;23;20470;-91
2022/06/30 08:06:14;;;;;;;37.53;3.80;;;;;;;22.90;30.86;99809.38;6220388;23;20052;-91
2022/06/30 08:08:44;;;;;;;17.95;3.20;;;;;;;22.85;30.79;99751.22;6193655;23;20461;-91
2022/06/30 08:11:11;;;;;;;20.27;3.45;;;;;;;22.79;28.74;99722.88;6243912;23;20071;-92
2022/06/30 08:13:40;;;;;;;34.85;4.22;;;;;;;23.00;29.67;99754.94;6169063;23;20362;-91
2022/06/30 08:17:06;;;;;;;12.45;2.90;;;;;;;23.03;25.13;99804.34;6214639;22;20050;-91
2022/06/30 08:19:33;;;;;;;24.00;3.25;;;;;;;22.81;27.27;99761.50;6224091;22;20019;-91
2022/06/30 08:22:02;;;;;;;15.32;3.50;;;;;;;22.84;28.38;99738.44;6181688;23;20024;-92
2022/06/30 08:24:31;;;;;;;15.88;3.10;;;;;;;22.83;29.13;99722.91;6133406;23;20021;-90
2022/06/30 08:27:00;;;;;;;23.08;3.05;;;;;;;23.20;29.34;99751.50;6181157;23;20017;-90
2022/06/30 08:29:27;;;;;;;31.17;4.82;;;;;;;23.03;28.17;99710.34;6157798;23;20120;-89
2022/06/30 08:32:02;;;;;;;21.00;3.20;;;;;;;23.02;29.01;99711.53;6183516;23;20283;-89
2022/06/30 08:34:34;;;;;;;25.90;4.10;;;;;;;23.21;29.10;99739.16;6186005;23;20104;-89
2022/06/30 08:37:13;;;;;;;12.75;3.20;;;;;;;23.04;27.68;99711.13;6163582;23;20052;-94
2022/06/30 09:13:09;;;;;;;42.28;4.57;;;;;;;24.01;26.60;99754.38;6217908;23;20025;-93
2022/06/30 09:15:39;;;;;;;26.38;3.13;;;;;;;23.57;23.62;99733.78;6171314;23;20035;-91
2022/06/30 09:18:07;;;;;;;14.18;2.90;;;;;;;23.39;24.89;99694.63;6215088;23;20090;-87
2022/06/30 09:21:35;;;;;;;32.60;4.07;;;;;;;23.91;26.06;99751.13;6216850;23;20055;-92
2022/06/30 09:24:27;;;;;;;14.07;2.65;;;;;;;23.92;24.42;99754.72;6191902;23;20025;-91
2022/06/30 09:27:17;;;;;;;25.55;3.50;;;;;;;23.89;26.19;99747.13;6189532;23;20021;-94
2022/06/30 09:29:48;;;;;;;28.00;3.65;;;;;;;23.76;23.55;99751.47;6214284;23;20013;-91
2022/06/30 09:32:14;;;;;;;19.63;3.10;;;;;;;23.57;24.02;99705.88;6162828;23;20021;-92
2022/06/30 09:34:43;;;;;;;20.60;2.75;;;;;;;24.03;24.78;99744.38;6214149;23;20020;-86
2022/06/30 09:37:22;;;;;;;74.07;7.20;;;;;;;24.00;25.37;99708.88;6211015;23;20401;-87
2022/06/30 09:39:50;;;;;;;15.75;3.10;;;;;;;24.20;23.92;99730.88;6212259;23;20066;-87
2022/06/30 09:42:52;;;;;;;38.50;3.90;;;;;;;24.13;24.39;99714.91;6188215;23;20350;-93
2022/06/30 09:45:47;;;;;;;43.17;4.72;;;;;;;24.06;24.89;99720.47;6216818;23;20019;-90
2022/06/30 09:48:18;;;;;;;17.92;3.55;;;;;;;24.08;25.36;99716.09;6166913;23;20368;-92
2022/06/30 09:50:56;;;;;;;25.80;3.70;;;;;;;24.10;26.23;99701.72;6167011;23;20012;-88
2022/06/30 09:53:22;;;;;;;31.63;3.20;;;;;;;24.39;26.13;99711.75;6191775;23;20071;-90
2022/06/30 09:55:49;;;;;;;30.17;3.80;;;;;;;24.40;24.34;99695.78;6217961;23;20103;-88
2022/06/30 09:58:35;;;;;;;29.38;6.25;;;;;;;24.39;24.40;99692.19;6216448;23;20155;-88
2022/06/30 10:01:06;;;;;;;17.83;2.70;;;;;;;24.41;24.07;99719.78;6217748;23;20016;-89
2022/06/30 10:03:32;;;;;;;41.63;3.58;;;;;;;24.14;23.48;99661.44;6216627;23;20017;-86
2022/06/30 10:06:14;;;;;;;26.40;3.80;;;;;;;24.30;23.95;99700.16;6243163;23;20111;-91
2022/06/30 10:08:41;;;;;;;21.80;3.13;;;;;;;24.01;24.16;99681.75;6167710;23;20103;-88
2022/06/30 10:11:10;;;;;;;25.23;3.28;;;;;;;24.25;24.90;99706.16;6221078;23;20524;-89
2022/06/30 10:13:43;;;;;;;10.23;2.60;;;;;;;24.34;24.59;99728.13;6195141;23;20024;-92
2022/06/30 10:16:12;;;;;;;30.85;2.95;;;;;;;24.22;25.07;99684.59;6195307;23;20094;-91
2022/06/30 10:18:42;;;;;;;17.67;2.55;;;;;;;24.44;23.31;99710.63;6219112;23;20026;-92
2022/06/30 10:21:10;;;;;;;17.85;2.88;;;;;;;24.25;23.77;99686.59;6219366;23;20020;-89
2022/06/30 10:23:37;;;;;;;41.33;3.72;;;;;;;24.24;24.09;99675.81;6218757;23;20545;-89
2022/06/30 10:26:04;;;;;;;;;;;;;;;24.59;24.76;99708.63;6219182;23;20031;-89
2022/06/30 10:28:31;;;;;;;16.83;2.60;;;;;;;24.34;23.74;99697.41;6217826;23;19915;-87
2022/06/30 10:31:15;;;;;;;19.52;3.20;;;;;;;24.50;24.15;99702.63;6167760;23;20023;-86
2022/06/30 10:34:07;;;;;;;10.68;2.97;;;;;;;24.64;24.29;99708.22;6244851;23;20020;-87
2022/06/30 10:37:05;;;;;;;19.58;2.65;;;;;;;24.43;25.13;99657.91;6217675;23;20358;-88
2022/06/30 10:39:37;;;;;;;18.30;2.60;;;;;;;24.85;24.17;99697.03;6219063;23;20561;-89
2022/06/30 10:42:03;;;;;;;16.55;2.67;;;;;;;24.71;24.16;99673.88;6245825;23;20498;-87
2022/06/30 10:44:44;;;;;;;62.35;4.47;;;;;;;24.80;23.77;99711.44;6195504;23;20080;-91
2022/06/30 10:47:11;;;;;;;27.80;3.28;;;;;;;24.58;23.68;99659.50;6220996;23;20015;-87
2022/06/30 10:49:54;;;;;;;20.38;2.55;;;;;;;24.65;22.41;99695.84;6222017;23;20020;-88
2022/06/30 10:52:25;;;;;;;11.15;2.05;;;;;;;24.46;23.01;99637.53;6194927;23;20016;-88
2022/06/30 10:55:00;;;;;;;24.55;3.15;;;;;;;24.52;22.90;99635.94;6245895;23;20105;-87
2022/06/30 10:57:26;;;;;;;23.00;2.85;;;;;;;24.80;23.49;99640.69;6245679;23;20821;-88
2022/06/30 10:59:56;;;;;;;22.27;3.03;;;;;;;24.88;24.75;99633.13;6217291;23;20024;-88
2022/06/30 11:02:25;;;;;;;20.80;2.83;;;;;;;24.90;23.51;99641.88;6219059;23;20339;-87
2022/06/30 11:05:12;;;;;;;15.27;2.72;;;;;;;24.91;23.75;99610.75;6218654;23;20051;-88
2022/06/30 11:07:38;;;;;;;20.52;3.00;;;;;;;25.23;23.37;99635.03;6192025;23;20020;-87
2022/06/30 11:10:05;;;;;;;14.73;3.10;;;;;;;25.07;22.17;99630.69;6198325;22;20045;-89
2022/06/30 11:12:38;;;;;;;29.90;3.30;;;;;;;25.22;22.39;99678.22;6247100;22;20541;-87
2022/06/30 11:15:05;;;;;;;37.53;3.97;;;;;;;25.06;22.91;99642.25;6197381;22;20463;-87
2022/06/30 11:17:35;;;;;;;14.57;2.95;;;;;;;25.20;23.58;99647.03;6274323;22;20104;-88
2022/06/30 11:20:10;;;;;;;38.25;4.22;;;;;;;25.00;22.80;99619.50;6274720;22;20020;-89
2022/06/30 11:22:38;;;;;;;20.03;3.20;;;;;;;25.07;23.51;99618.69;6248741;22;20065;-88
2022/06/30 11:25:10;;;;;;;9.93;2.70;;;;;;;25.28;24.44;99640.25;6276082;22;20276;-87
2022/06/30 11:27:38;;;;;;;20.42;3.00;;;;;;;25.35;24.97;99614.22;6276175;22;20019;-87
2022/06/30 11:30:11;;;;;;;44.33;4.72;;;;;;;25.21;23.48;99587.09;6275445;22;20054;-88
2022/06/30 11:32:38;;;;;;;43.25;5.35;;;;;;;25.41;24.06;99615.41;6247833;22;20023;-90
2022/06/30 11:35:14;;;;;;;32.33;4.53;;;;;;;25.61;24.19;99621.31;6202058;22;20119;-89
2022/06/30 11:37:41;;;;;;;79.25;6.53;;;;;;;25.95;24.98;99644.75;6250244;22;20019;-88
2022/06/30 11:40:12;;;;;;;37.50;3.92;;;;;;;25.97;25.00;99633.16;6250540;22;20043;-90
2022/06/30 11:42:44;;;;;;;23.00;4.53;;;;;;;25.67;24.55;99617.69;6277237;22;20016;-90
2022/06/30 11:45:22;;;;;;;31.00;4.22;;;;;;;25.64;25.04;99595.31;6249276;22;20019;-89
2022/06/30 11:47:55;;;;;;;83.00;7.43;;;;;;;25.61;25.00;99590.53;6249587;22;20023;-91
2022/06/30 11:50:26;;;;;;;63.40;6.15;;;;;;;25.96;24.72;99629.56;6224734;22;20030;-90
2022/06/30 11:52:57;;;;;;;36.20;4.28;;;;;;;25.94;25.96;99591.94;6249990;22;20015;-90
2022/06/30 11:55:30;;;;;;;37.92;4.05;;;;;;;25.93;25.80;99579.16;6249970;22;20349;-89
2022/06/30 11:57:57;;;;;;;37.78;5.13;;;;;;;26.12;26.59;99591.81;6197890;22;20019;-88
2022/06/30 12:00:38;;;;;;;52.83;5.25;;;;;;;25.81;25.69;99583.22;6198078;22;20043;-91
2022/06/30 12:03:12;;;;;;;92.05;7.57;;;;;;;25.97;25.94;99605.13;6247578;22;20095;-88
2022/06/30 12:05:38;;;;;;;33.13;4.95;;;;;;;25.95;25.93;99597.13;6224206;22;20011;-90
2022/06/30 12:08:06;;;;;;;19.48;3.33;;;;;;;25.99;25.61;99585.91;6224151;22;20061;-88
2022/06/30 12:10:35;;;;;;;35.42;4.18;;;;;;;26.35;25.46;99589.22;6223579;22;20457;-88
2022/06/30 12:13:03;;;;;;;20.42;3.22;;;;;;;26.13;24.97;99571.00;6222992;22;20576;-89
2022/06/30 12:15:29;;;;;;;24.98;3.22;;;;;;;26.04;25.58;99573.47;6247470;22;20019;-87
2022/06/30 12:17:56;;;;;;;27.75;4.50;;;;;;;25.99;26.59;99569.91;6249095;22;20019;-86
2022/06/30 12:20:26;;;;;;;28.15;3.58;;;;;;;26.06;24.69;99573.84;6223494;22;20115;-90
2022/06/30 12:22:53;;;;;;;25.08;3.95;;;;;;;26.03;24.14;99544.66;6198383;22;20020;-90
2022/06/30 12:25:45;;;;;;;33.80;4.50;;;;;;;26.44;24.36;99611.97;6248735;22;20098;-90
2022/06/30 12:28:14;;;;;;;37.95;3.40;;;;;;;26.13;24.90;99540.97;6200350;22;20354;-92
2022/06/30 12:30:40;;;;;;;53.25;5.03;;;;;;;26.33;24.53;99530.00;6250128;22;20019;-90
2022/06/30 12:33:08;;;;;;;24.92;4.30;;;;;;;26.47;24.04;99540.25;6251255;22;20058;-90
2022/06/30 12:35:36;;;;;;;62.58;5.40;;;;;;;26.86;24.25;99612.03;6223130;22;20434;-87
2022/06/30 12:38:19;;;;;;;34.08;3.90;;;;;;;26.09;24.20;99533.78;6249223;22;20023;-90
2022/06/30 12:41:16;;;;;;;33.53;4.45;;;;;;;26.57;25.19;99555.44;6254884;22;20019;-89
2022/06/30 12:43:45;;;;;;;37.58;4.10;;;;;;;26.84;25.61;99563.94;6250027;22;20024;-88
2022/06/30 12:46:12;;;;;;;15.20;2.72;;;;;;;26.87;24.46;99555.50;6250295;22;20090;-91
2022/06/30 12:48:46;;;;;;;29.15;4.00;;;;;;;26.81;25.59;99522.72;6250791;22;20138;-89
2022/06/30 12:51:35;;;;;;;33.92;4.30;;;;;;;26.84;25.12;99528.28;6276376;22;20050;-92
2022/06/30 12:54:06;;;;;;;73.25;7.07;;;;;;;27.03;24.51;99540.09;6276220;22;20015;-89
2022/06/30 12:56:34;;;;;;;23.65;3.75;;;;;;;27.09;24.57;99544.03;6223896;22;20110;-88
2022/06/30 12:59:02;;;;;;;37.83;4.15;;;;;;;27.42;23.54;99592.97;6275263;22;20020;-88
2022/06/30 13:01:31;;;;;;;22.52;3.65;;;;;;;27.06;24.04;99570.13;6248146;22;20442;-86
2022/06/30 13:04:03;;;;;;;27.33;3.80;;;;;;;27.21;23.87;99573.56;6248289;22;20108;-87
2022/06/30 13:06:41;;;;;;;32.75;4.28;;;;;;;27.16;23.34;99570.03;6248153;22;20015;-88
2022/06/30 13:09:10;;;;;;;32.33;3.55;;;;;;;27.17;23.44;99582.03;6222108;22;20492;-89
2022/06/30 13:11:40;;;;;;;43.63;4.20;;;;;;;26.91;22.79;99545.03;6246947;22;20370;-92
2022/06/30 13:14:07;;;;;;;55.42;4.43;;;;;;;27.40;22.52;99582.16;6222587;22;20362;-91
2022/06/30 13:16:34;;;;;;;38.65;4.43;;;;;;;27.39;23.04;99565.72;6197672;22;20027;-90
2022/06/30 13:19:04;;;;;;;38.95;4.25;;;;;;;27.39;23.66;99574.94;6222549;22;20051;-89
2022/06/30 13:21:32;;;;;;;34.58;4.35;;;;;;;26.99;22.87;99542.13;6224489;22;20022;-87
2022/06/30 13:23:58;;;;;;;29.98;4.50;;;;;;;26.99;22.71;99579.41;6276529;22;20341;-86
2022/06/30 13:26:24;;;;;;;41.25;3.90;;;;;;;26.99;23.41;99553.34;6276379;22;20019;-88
2022/06/30 13:28:57;;;;;;;46.58;6.00;;;;;;;26.48;22.99;99513.84;6250054;22;20074;-88
2022/06/30 13:31:25;;;;;;;43.47;5.80;;;;;;;26.73;22.93;99547.25;6251445;22;20022;-89
2022/06/30 13:33:51;;;;;;;24.52;3.75;;;;;;;26.71;22.83;99555.25;6199869;22;20054;-88
2022/06/30 13:36:19;;;;;;;27.38;3.70;;;;;;;26.53;23.33;99544.25;6251228;22;20345;-89
2022/06/30 13:38:46;;;;;;;20.35;3.42;;;;;;;26.54;23.76;99536.63;6248938;22;20160;-89
2022/06/30 13:41:14;;;;;;;24.10;3.55;;;;;;;26.86;24.11;99595.19;6198507;22;20501;-89
2022/06/30 13:43:42;;;;;;;32.47;3.47;;;;;;;26.81;24.19;99559.16;6261390;22;20178;-86
2022/06/30 13:46:08;;;;;;;26.65;3.42;;;;;;;26.79;24.14;99551.19;6267472;22;20015;-87
2022/06/30 13:48:36;;;;;;;33.72;3.72;;;;;;;27.04;24.37;99581.75;6237549;22;20098;-87
2022/06/30 13:51:02;;;;;;;62.33;5.78;;;;;;;26.99;24.03;99545.75;6232434;22;20011;-89
2022/06/30 13:53:28;;;;;;;34.70;3.65;;;;;;;26.86;23.90;99553.91;6233170;22;20067;-90
2022/06/30 13:55:55;;;;;;;17.48;3.63;;;;;;;26.69;23.63;99521.25;6231982;22;20034;-86
2022/06/30 13:58:24;;;;;;;40.92;4.13;;;;;;;26.80;24.81;99558.38;6230527;22;20081;-87
2022/06/30 14:12:58;;;;;;;15.15;2.92;;;;;;;26.99;24.91;99498.06;6260066;22;20032;-90
2022/06/30 14:16:01;;;;;;;;;;;;;;;;;;;;;
2022/06/30 14:28:34;;;;;;;37.67;4.40;;;;;;;25.89;25.73;99500.72;6174425;23;20060;-96
2022/06/30 14:58:56;;;;;;;55.53;4.45;;;;;;;26.22;25.96;99518.88;6140128;23;20036;-93
2022/06/30 15:04:47;;;;;;;39.20;4.53;;;;;;;26.28;26.24;99488.38;6142899;22;20027;-95
2022/06/30 15:07:47;;;;;;;45.63;3.83;;;;;;;26.80;25.87;99558.38;6219910;23;20086;-94
2022/06/30 15:10:13;;;;;;;14.90;2.38;;;;;;;26.32;25.34;99500.34;6192866;23;20023;-93
2022/06/30 15:12:42;;;;;;;40.00;4.38;;;;;;;25.74;26.14;99486.03;6199507;23;20001;-94
2022/06/30 15:28:54;;;;;;;37.92;3.78;;;;;;;27.06;25.60;99564.50;6190092;23;20029;-92
2022/06/30 15:32:15;;;;;;;17.83;2.88;;;;;;;26.56;26.07;99528.59;6166444;22;20035;-95
2022/06/30 15:34:53;;;;;;;20.60;3.08;;;;;;;26.54;26.55;99505.78;6233139;22;20064;-93
2022/06/30 15:37:26;;;;;;;39.00;3.25;;;;;;;26.74;25.14;99536.81;6226608;22;20019;-93
2022/06/30 15:39:55;;;;;;;30.63;3.72;;;;;;;26.43;25.53;99534.69;6199676;22;20015;-93
2022/06/30 15:42:48;;;;;;;;;;;;;;;;;;;;;
2022/06/30 15:46:04;;;;;;;26.85;3.88;;;;;;;26.60;25.83;99535.75;6210468;22;20004;-94
2022/06/30 15:48:52;;;;;;;29.48;4.20;;;;;;;26.35;25.72;99519.13;6216626;22;20019;-96
2022/06/30 15:55:04;;;;;;;24.95;3.45;;;;;;;25.74;26.44;99502.81;6177444;23;20035;-95
2022/06/30 15:57:44;;;;;;;25.00;2.83;;;;;;;25.52;26.91;99484.59;6213935;22;20103;-96
2022/06/30 16:00:52;;;;;;;20.40;3.00;;;;;;;26.07;26.40;99565.03;6191798;22;20051;-92
2022/06/30 16:04:01;;;;;;;50.42;4.90;;;;;;;26.08;26.58;99569.44;6247185;22;20790;-94
2022/06/30 16:10:47;;;;;;;;;;;;;;;;;;;;;
2022/06/30 16:16:57;;;;;;;32.78;4.15;;;;;;;25.34;27.47;99537.09;6225821;23;20044;-95
2022/06/30 16:23:48;;;;;;;31.35;3.03;;;;;;;25.11;27.87;99562.75;6225409;23;20039;-96
2022/06/30 16:39:45;;;;;;;13.52;2.80;;;;;;;24.27;30.06;99560.47;6178468;22;20024;-94
2022/06/30 17:06:00;;;;;;;15.93;2.90;;;;;;;23.26;31.40;99478.59;6221705;22;20040;-95
2022/06/30 17:08:59;;;;;;;11.40;3.03;;;;;;;23.49;31.46;99528.47;6218967;23;20075;-86
2022/06/30 17:11:34;;;;;;;20.17;3.83;;;;;;;23.68;31.68;99550.47;6189306;23;20517;-92
2022/06/30 17:17:59;;;;;;;11.02;3.42;;;;;;;23.32;32.15;99515.28;6218115;23;20443;-89
2022/06/30 17:20:38;;;;;;;12.68;4.15;;;;;;;23.44;32.39;99540.00;6179563;22;20499;-93
2022/06/30 17:23:37;;;;;;;13.30;3.85;;;;;;;23.53;32.75;99556.38;6252492;22;20515;-89
2022/06/30 17:36:11;;;;;;;10.43;3.95;;;;;;;23.35;33.56;99573.06;6191697;23;20020;-88
2022/06/30 17:47:25;;;;;;;8.65;3.70;;;;;;;23.01;34.45;99550.19;6024414;23;20019;-90
2022/06/30 17:53:35;;;;;;;7.63;3.65;;;;;;;22.86;34.64;99546.53;6241190;22;20027;-94
2022/06/30 17:59:36;;;;;;;18.67;4.45;;;;;;;22.42;34.79;99484.19;6167372;23;20020;-93
2022/06/30 18:16:41;;;;;;;11.57;3.67;;;;;;;22.87;35.25;99598.28;6024721;23;20071;-93
2022/06/30 18:23:02;;;;;;;9.40;3.50;;;;;;;22.62;35.82;99554.34;6230522;22;20173;-94
2022/06/30 18:26:03;;;;;;;6.70;2.90;;;;;;;22.29;35.60;99513.53;6268778;22;20031;-90
2022/06/30 18:50:25;;;;;;;6.20;2.95;;;;;;;22.49;36.73;99590.09;6157589;23;20026;-94
2022/06/30 18:52:52;;;;;;;13.15;3.63;;;;;;;22.00;36.78;99529.97;6108637;23;20048;-90
2022/06/30 18:55:21;;;;;;;19.60;3.33;;;;;;;21.91;37.07;99523.94;6131466;23;20045;-89
2022/06/30 18:57:56;;;;;;;19.50;3.20;;;;;;;22.00;37.01;99543.09;6107032;23;20013;-91
2022/06/30 19:00:24;;;;;;;13.27;3.50;;;;;;;22.15;36.96;99575.50;6131142;23;20470;-90
2022/06/30 19:03:06;;;;;;;7.72;3.35;;;;;;;21.81;37.27;99533.78;6107705;23;20018;-91
2022/06/30 19:08:57;;;;;;;13.57;3.10;;;;;;;22.14;36.88;99578.63;6107223;23;20025;-90
2022/06/30 19:11:33;;;;;;;19.02;3.15;;;;;;;21.83;36.89;99529.84;6155176;23;20063;-91
2022/06/30 19:14:34;;;;;;;8.15;3.40;;;;;;;21.78;37.19;99512.28;6110113;23;20028;-91
2022/06/30 19:17:06;;;;;;;9.25;3.40;;;;;;;21.94;36.83;99536.28;6130826;23;20478;-91
2022/06/30 19:19:41;;;;;;;14.38;3.53;;;;;;;22.22;37.01;99575.56;6081465;23;20028;-90
2022/06/30 19:22:11;;;;;;;9.48;3.97;;;;;;;21.95;37.28;99535.91;6104580;23;20017;-89
2022/06/30 19:24:37;;;;;;;14.80;3.28;;;;;;;22.00;36.82;99529.19;6153917;23;20025;-91
2022/06/30 19:27:05;;;;;;;18.23;4.38;;;;;;;22.15;36.75;99555.16;6245108;22;20034;-89
2022/06/30 19:29:31;;;;;;;14.02;3.45;;;;;;;22.16;36.75;99562.38;6224311;22;20019;-86
2022/06/30 19:31:59;;;;;;;16.08;3.67;;;;;;;22.33;37.11;99580.41;6224852;22;20374;-88
2022/06/30 19:34:25;;;;;;;15.95;3.10;;;;;;;22.43;36.80;99599.97;6249555;22;20023;-90
2022/06/30 19:36:51;;;;;;;11.45;3.70;;;;;;;22.01;36.95;99533.56;6248892;22;20110;-89
2022/06/30 19:39:18;;;;;;;16.45;3.40;;;;;;;21.98;36.95;99537.13;6198504;22;20369;-90
2022/06/30 19:41:46;;;;;;;11.10;3.30;;;;;;;21.95;37.16;99529.53;6175889;23;20099;-90
2022/06/30 19:44:12;;;;;;;14.93;3.60;;;;;;;21.99;37.08;99533.16;6194115;23;20081;-91
2022/06/30 19:46:39;;;;;;;10.02;3.40;;;;;;;22.25;37.08;99577.56;6194483;23;20379;-90
2022/06/30 19:49:05;;;;;;;21.00;3.65;;;;;;;22.08;37.11;99544.75;6221182;23;20023;-91
2022/06/30 19:51:32;;;;;;;19.25;3.33;;;;;;;22.03;37.23;99545.91;6199183;23;20020;-91
2022/06/30 19:54:17;;;;;;;10.23;3.00;;;;;;;22.03;37.27;99548.69;6221751;23;20023;-91
2022/06/30 19:56:44;;;;;;;8.90;2.85;;;;;;;21.86;37.22;99523.50;6197382;23;20354;-91
2022/06/30 19:59:13;;;;;;;6.97;3.28;;;;;;;22.10;37.20;99567.44;6248029;23;20019;-91
2022/06/30 20:01:42;;;;;;;11.00;3.47;;;;;;;22.02;37.38;99560.25;6222109;23;20016;-90
2022/06/30 20:06:53;;;;;;;10.25;3.28;;;;;;;22.08;37.46;99563.44;6196456;23;20043;-90
2022/06/30 20:12:04;;;;;;;17.85;4.05;;;;;;;22.13;37.77;99588.16;6221167;23;20024;-89
2022/06/30 20:14:31;;;;;;;;;;;;;;;22.19;38.03;99612.53;6221813;23;20047;-90
2022/06/30 20:17:00;;;;;;;14.88;5.45;;;;;;;22.00;37.98;99570.94;6250245;23;19919;-92
2022/06/30 20:19:49;;;;;;;;;;;;;;;22.15;38.74;99613.63;6172063;23;20024;-93
2022/06/30 20:22:21;;;;;;;18.20;4.20;;;;;;;21.86;38.82;99590.31;6143579;23;19915;-90
2022/06/30 20:24:51;;;;;;;17.88;4.15;;;;;;;21.48;38.84;99525.50;6178142;23;20103;-93
2022/06/30 20:27:26;;;;;;;5.65;3.25;;;;;;;21.52;39.13;99529.13;6188212;23;20337;-92
2022/06/30 20:34:23;;;;;;;15.48;3.35;;;;;;;21.91;39.68;99603.84;6216615;22;20028;-92
2022/06/30 20:37:02;;;;;;;10.63;3.20;;;;;;;21.53;39.70;99553.00;6130977;23;20593;-92
2022/06/30 20:39:28;;;;;;;8.23;3.22;;;;;;;21.66;39.89;99575.78;6201858;22;20019;-91
2022/06/30 20:41:57;;;;;;;11.45;3.50;;;;;;;21.60;39.87;99566.97;6208754;22;20022;-93
2022/06/30 20:44:23;;;;;;;6.07;3.20;;;;;;;21.41;39.75;99553.25;6258163;22;20076;-92
2022/06/30 20:52:17;;;;;;;14.65;4.25;;;;;;;21.17;39.66;99532.28;6226768;22;20016;-91
2022/06/30 20:54:44;;;;;;;7.07;3.28;;;;;;;21.15;39.80;99527.09;6224171;22;20019;-91
2022/06/30 20:57:11;;;;;;;9.90;3.33;;;;;;;21.13;40.01;99526.69;6226854;22;20019;-92
2022/06/30 20:59:38;;;;;;;12.70;3.03;;;;;;;21.25;40.50;99559.78;6228692;22;20034;-94
2022/06/30 21:02:05;;;;;;;10.27;3.50;;;;;;;20.97;40.48;99517.75;6253764;22;20016;-93
2022/06/30 21:04:34;;;;;;;14.18;3.75;;;;;;;21.31;40.92;99576.94;6205278;22;20461;-91
2022/06/30 21:10:21;;;;;;;12.05;3.33;;;;;;;20.86;41.00;99523.97;6155701;23;20028;-95
2022/06/30 21:12:58;;;;;;;13.18;3.58;;;;;;;20.89;40.54;99533.50;6106772;23;20018;-91
2022/06/30 21:15:25;;;;;;;8.73;3.20;;;;;;;20.97;40.99;99556.66;6105074;23;20084;-90
2022/06/30 21:17:52;;;;;;;8.18;3.63;;;;;;;21.14;41.04;99591.44;6081553;23;20025;-91
2022/06/30 21:20:18;;;;;;;9.75;3.75;;;;;;;21.08;40.85;99586.19;6130316;23;20053;-91
2022/06/30 21:22:46;;;;;;;18.38;3.33;;;;;;;20.86;41.46;99556.50;6130890;23;20379;-90
2022/06/30 21:25:23;;;;;;;46.53;5.20;;;;;;;21.14;41.22;99617.25;6107044;23;20475;-90
2022/06/30 21:27:50;;;;;;;22.00;3.78;;;;;;;20.74;41.14;99557.53;6104926;23;20098;-90
2022/06/30 21:30:18;;;;;;;16.88;3.30;;;;;;;20.97;41.13;99590.81;6128753;23;20021;-91
2022/06/30 21:32:44;;;;;;;22.25;3.50;;;;;;;20.79;41.82;99570.28;6103743;23;20013;-92
2022/06/30 21:35:12;;;;;;;14.77;3.83;;;;;;;21.07;42.22;99622.72;6130246;23;20025;-93
2022/06/30 21:37:39;;;;;;;14.38;3.38;;;;;;;20.61;41.61;99547.81;6085222;23;20364;-91
2022/06/30 21:40:26;;;;;;;21.48;3.78;;;;;;;21.05;41.28;99616.72;6100025;23;20022;-94
2022/06/30 21:42:56;;;;;;;16.80;3.80;;;;;;;20.72;41.84;99568.22;6097545;23;20473;-95
2022/06/30 21:45:23;;;;;;;10.45;3.45;;;;;;;20.53;41.48;99538.59;6025557;23;20050;-92
2022/06/30 22:20:06;;;;;;;10.15;3.65;;;;;;;20.69;42.51;99609.84;6221596;23;20020;-93
